Time,TemperatureF,DewpointF,PressureIn,WindDirection,WindDirectionDegrees,WindSpeedMPH,WindSpeedGustMPH,Humidity,HourlyPrecipIn,Conditions,Clouds,dailyrainin,SoftwareType,DateUTC
2013-04-27 00:00:00,40.8,30.7,30.29,North,0,0.0,2.0,67,0.00,,-RA,0.00,VWS V14.01,2013-04-27 04:00:00,
2013-04-27 00:01:00,40.8,30.7,30.29,North,0,0.0,0.0,67,0.00,,CLR,0.00,VWS V14.01,2013-04-27 04:01:00,
2013-04-27 00:02:00,40.7,31.0,30.29,North,0,0.0,0.0,68,0.00,,CLR,0.00,VWS V14.01,2013-04-27 04:02:00,
2013-04-27 00:07:00,40.5,30.8,30.29,North,0,0.0,1.0,68,0.00,,CLR,0.00,VWS V14.01,2013-04-27 04:07:00,
2013-04-27 00:12:00,40.3,30.6,30.29,North,0,0.0,1.0,68,0.00,,CLR,0.00,VWS V14.01,2013-04-27 04:12:00,
2013-04-27 00:17:00,40.1,30.4,30.29,North,0,0.0,1.0,68,0.00,,CLR,0.00,VWS V14.01,2013-04-27 04:17:00,
2013-04-27 00:22:00,40.0,30.3,30.29,North,0,0.0,1.0,68,0.00,,CLR,0.00,VWS V14.01,2013-04-27 04:22:00,
2013-04-27 00:27:00,39.9,30.2,30.29,North,0,0.0,1.0,68,0.00,,CLR,0.00,VWS V14.01,2013-04-27 04:27:00,
2013-04-27 00:30:00,39.8,30.5,30.29,North,0,0.0,1.0,69,0.00,,-RA,0.00,VWS V14.01,2013-04-27 04:30:00,
2013-04-27 00:32:00,39.7,30.4,30.29,North,0,0.0,0.0,69,0.00,,CLR,0.00,VWS V14.01,2013-04-27 04:32:00,
2013-04-27 00:37:00,39.6,30.3,30.29,North,0,0.0,0.0,69,0.00,,CLR,0.00,VWS V14.01,2013-04-27 04:37:00,
2013-04-27 00:42:00,39.4,30.1,30.30,North,0,0.0,0.0,69,0.00,,CLR,0.00,VWS V14.01,2013-04-27 04:42:00,
2013-04-27 00:47:00,39.2,29.9,30.30,North,0,0.0,0.0,69,0.00,,CLR,0.00,VWS V14.01,2013-04-27 04:47:00,
2013-04-27 00:52:00,39.1,30.2,30.29,North,0,0.0,0.0,70,0.00,,CLR,0.00,VWS V14.01,2013-04-27 04:52:00,
2013-04-27 00:57:00,39.0,30.1,30.29,North,0,0.0,0.0,70,0.00,,CLR,0.00,VWS V14.01,2013-04-27 04:57:00,
2013-04-27 01:00:00,38.9,30.0,30.29,North,0,0.0,0.0,70,0.00,,-RA,0.00,VWS V14.01,2013-04-27 05:00:00,
2013-04-27 01:02:00,38.8,29.9,30.30,North,0,0.0,0.0,70,0.00,,CLR,0.00,VWS V14.01,2013-04-27 05:02:00,
2013-04-27 01:07:00,38.7,30.1,30.30,North,0,0.0,0.0,71,0.00,,CLR,0.00,VWS V14.01,2013-04-27 05:07:00,
2013-04-27 01:12:00,38.5,29.9,30.30,North,0,0.0,0.0,71,0.00,,CLR,0.00,VWS V14.01,2013-04-27 05:12:00,
2013-04-27 01:17:00,38.4,30.2,30.30,North,0,0.0,0.0,72,0.00,,CLR,0.00,VWS V14.01,2013-04-27 05:17:00,
2013-04-27 01:22:00,38.2,30.3,30.30,North,0,1.0,1.0,73,0.00,,CLR,0.00,VWS V14.01,2013-04-27 05:22:00,
2013-04-27 01:27:00,38.1,30.6,30.30,North,0,0.0,1.0,74,0.00,,CLR,0.00,VWS V14.01,2013-04-27 05:27:00,
2013-04-27 01:30:00,38.0,30.5,30.30,North,0,0.0,1.0,74,0.00,,-RA,0.00,VWS V14.01,2013-04-27 05:30:00,
2013-04-27 01:32:00,37.9,30.7,30.30,North,0,0.0,1.0,75,0.00,,CLR,0.00,VWS V14.01,2013-04-27 05:32:00,
2013-04-27 01:37:00,37.7,30.5,30.30,North,0,0.0,1.0,75,0.00,,CLR,0.00,VWS V14.01,2013-04-27 05:37:00,
2013-04-27 01:42:00,37.6,30.4,30.30,North,0,0.0,1.0,75,0.00,,CLR,0.00,VWS V14.01,2013-04-27 05:42:00,
2013-04-27 01:47:00,37.4,30.2,30.30,North,0,0.0,1.0,75,0.00,,CLR,0.00,VWS V14.01,2013-04-27 05:47:00,
2013-04-27 01:52:00,37.3,30.4,30.30,North,0,0.0,1.0,76,0.00,,CLR,0.00,VWS V14.01,2013-04-27 05:52:00,
2013-04-27 01:57:00,37.2,30.4,30.30,North,0,0.0,1.0,76,0.00,,CLR,0.00,VWS V14.01,2013-04-27 05:57:00,
2013-04-27 02:00:00,37.1,30.2,30.30,North,0,0.0,1.0,76,0.00,,-RA,0.00,VWS V14.01,2013-04-27 06:00:00,
2013-04-27 02:02:00,37.0,30.1,30.30,North,0,0.0,0.0,76,0.00,,CLR,0.00,VWS V14.01,2013-04-27 06:02:00,
2013-04-27 02:07:00,36.9,30.4,30.30,North,0,0.0,0.0,77,0.00,,CLR,0.00,VWS V14.01,2013-04-27 06:07:00,
2013-04-27 02:12:00,36.8,30.3,30.30,North,0,0.0,0.0,77,0.00,,CLR,0.00,VWS V14.01,2013-04-27 06:12:00,
2013-04-27 02:17:00,36.7,30.2,30.30,North,0,0.0,0.0,77,0.00,,CLR,0.00,VWS V14.01,2013-04-27 06:17:00,
2013-04-27 02:22:00,36.5,30.0,30.30,North,0,0.0,0.0,77,0.00,,CLR,0.00,VWS V14.01,2013-04-27 06:22:00,
2013-04-27 02:27:00,36.4,30.2,30.29,North,0,0.0,0.0,78,0.00,,CLR,0.00,VWS V14.01,2013-04-27 06:27:00,
2013-04-27 02:30:00,36.4,30.2,30.30,North,0,0.0,0.0,78,0.00,,-RA,0.00,VWS V14.01,2013-04-27 06:30:00,
2013-04-27 02:33:00,36.4,30.2,30.29,North,0,0.0,0.0,78,0.00,,CLR,0.00,VWS V14.01,2013-04-27 06:33:00,
2013-04-27 02:38:00,36.3,30.1,30.29,North,0,0.0,0.0,78,0.00,,CLR,0.00,VWS V14.01,2013-04-27 06:38:00,
2013-04-27 02:43:00,36.3,30.4,30.29,North,0,0.0,0.0,79,0.00,,CLR,0.00,VWS V14.01,2013-04-27 06:43:00,
2013-04-27 02:48:00,36.2,30.3,30.29,North,0,0.0,0.0,79,0.00,,CLR,0.00,VWS V14.01,2013-04-27 06:48:00,
2013-04-27 02:53:00,36.2,30.3,30.29,North,0,0.0,0.0,79,0.00,,CLR,0.00,VWS V14.01,2013-04-27 06:53:00,
2013-04-27 02:58:00,36.2,30.3,30.29,North,0,0.0,0.0,79,0.00,,CLR,0.00,VWS V14.01,2013-04-27 06:58:00,
2013-04-27 03:00:00,36.1,30.2,30.29,North,0,0.0,0.0,79,0.00,,-RA,0.00,VWS V14.01,2013-04-27 07:00:00,
2013-04-27 03:03:00,36.1,30.2,30.30,North,0,0.0,0.0,79,0.00,,CLR,0.00,VWS V14.01,2013-04-27 07:03:00,
2013-04-27 03:08:00,36.0,30.1,30.29,North,0,0.0,0.0,79,0.00,,CLR,0.00,VWS V14.01,2013-04-27 07:08:00,
2013-04-27 03:13:00,35.9,30.0,30.29,North,0,0.0,0.0,79,0.00,,CLR,0.00,VWS V14.01,2013-04-27 07:13:00,
2013-04-27 03:18:00,35.7,29.8,30.29,North,0,0.0,0.0,79,0.00,,CLR,0.00,VWS V14.01,2013-04-27 07:18:00,
2013-04-27 03:23:00,35.6,29.7,30.30,North,0,0.0,0.0,79,0.00,,CLR,0.00,VWS V14.01,2013-04-27 07:23:00,
2013-04-27 03:28:00,35.5,29.6,30.30,North,0,0.0,0.0,79,0.00,,CLR,0.00,VWS V14.01,2013-04-27 07:28:00,
2013-04-27 03:30:00,35.4,29.5,30.30,North,0,0.0,0.0,79,0.00,,-RA,0.00,VWS V14.01,2013-04-27 07:30:00,
2013-04-27 03:33:00,35.3,29.8,30.30,North,0,0.0,0.0,80,0.00,,CLR,0.00,VWS V14.01,2013-04-27 07:33:00,
2013-04-27 03:38:00,35.3,29.8,30.30,North,0,0.0,0.0,80,0.00,,CLR,0.00,VWS V14.01,2013-04-27 07:38:00,
2013-04-27 03:43:00,35.3,30.1,30.30,North,0,0.0,0.0,81,0.00,,CLR,0.00,VWS V14.01,2013-04-27 07:43:00,
2013-04-27 03:48:00,35.2,29.7,30.30,North,0,0.0,0.0,80,0.00,,CLR,0.00,VWS V14.01,2013-04-27 07:48:00,
2013-04-27 03:53:00,35.0,29.8,30.30,North,0,0.0,0.0,81,0.00,,CLR,0.00,VWS V14.01,2013-04-27 07:53:00,
2013-04-27 03:58:00,35.2,30.3,30.30,North,0,0.0,0.0,82,0.00,,CLR,0.00,VWS V14.01,2013-04-27 07:58:00,
2013-04-27 04:00:00,35.3,30.7,30.30,North,0,0.0,0.0,83,0.00,,-RA,0.00,VWS V14.01,2013-04-27 08:00:00,
2013-04-27 04:03:00,35.3,30.4,30.30,North,0,0.0,0.0,82,0.00,,CLR,0.00,VWS V14.01,2013-04-27 08:03:00,
2013-04-27 04:08:00,35.1,30.2,30.30,North,0,0.0,1.0,82,0.00,,CLR,0.00,VWS V14.01,2013-04-27 08:08:00,
2013-04-27 04:13:00,34.8,29.6,30.30,North,0,0.0,2.0,81,0.00,,CLR,0.00,VWS V14.01,2013-04-27 08:13:00,
2013-04-27 04:18:00,34.6,29.7,30.30,North,0,0.0,2.0,82,0.00,,CLR,0.00,VWS V14.01,2013-04-27 08:18:00,
2013-04-27 04:23:00,34.5,29.6,30.30,North,0,0.0,2.0,82,0.00,,CLR,0.00,VWS V14.01,2013-04-27 08:23:00,
2013-04-27 04:28:00,34.5,29.6,30.30,North,0,0.0,2.0,82,0.00,,CLR,0.00,VWS V14.01,2013-04-27 08:28:00,
2013-04-27 04:30:00,34.5,29.6,30.30,North,0,0.0,2.0,82,0.00,,-RA,0.00,VWS V14.01,2013-04-27 08:30:00,
2013-04-27 04:33:00,34.4,29.5,30.30,North,0,0.0,0.0,82,0.00,,CLR,0.00,VWS V14.01,2013-04-27 08:33:00,
2013-04-27 04:38:00,34.4,29.5,30.30,North,0,0.0,0.0,82,0.00,,CLR,0.00,VWS V14.01,2013-04-27 08:38:00,
2013-04-27 04:43:00,34.3,29.4,30.30,North,0,0.0,0.0,82,0.00,,CLR,0.00,VWS V14.01,2013-04-27 08:43:00,
2013-04-27 04:48:00,34.3,29.4,30.30,North,0,0.0,0.0,82,0.00,,CLR,0.00,VWS V14.01,2013-04-27 08:48:00,
2013-04-27 04:53:00,34.2,29.3,30.30,North,0,0.0,0.0,82,0.00,,CLR,0.00,VWS V14.01,2013-04-27 08:53:00,
2013-04-27 04:58:00,34.1,29.2,30.30,North,0,0.0,0.0,82,0.00,,CLR,0.00,VWS V14.01,2013-04-27 08:58:00,
2013-04-27 05:00:00,34.1,29.2,30.30,North,0,0.0,0.0,82,0.00,,-RA,0.00,VWS V14.01,2013-04-27 09:00:00,
2013-04-27 05:03:00,33.9,29.0,30.30,North,0,0.0,0.0,82,0.00,,CLR,0.00,VWS V14.01,2013-04-27 09:03:00,
2013-04-27 05:08:00,33.8,28.6,30.30,North,0,0.0,0.0,81,0.00,,CLR,0.00,VWS V14.01,2013-04-27 09:08:00,
2013-04-27 05:13:00,33.6,28.7,30.30,North,0,0.0,0.0,82,0.00,,CLR,0.00,VWS V14.01,2013-04-27 09:13:00,
2013-04-27 05:19:00,33.4,28.5,30.31,North,0,0.0,0.0,82,0.00,,CLR,0.00,VWS V14.01,2013-04-27 09:19:00,
2013-04-27 05:24:00,33.1,28.5,30.31,North,0,0.0,0.0,83,0.00,,CLR,0.00,VWS V14.01,2013-04-27 09:24:00,
2013-04-27 05:29:00,33.0,28.1,30.31,North,0,0.0,0.0,82,0.00,,CLR,0.00,VWS V14.01,2013-04-27 09:29:00,
2013-04-27 05:30:00,33.0,28.1,30.31,North,0,0.0,0.0,82,0.00,,-RA,0.00,VWS V14.01,2013-04-27 09:30:00,
2013-04-27 05:34:00,32.8,28.2,30.31,North,0,0.0,0.0,83,0.00,,CLR,0.00,VWS V14.01,2013-04-27 09:34:00,
2013-04-27 05:39:00,32.7,28.1,30.30,North,0,0.0,0.0,83,0.00,,CLR,0.00,VWS V14.01,2013-04-27 09:39:00,
2013-04-27 05:44:00,32.7,28.1,30.30,North,0,0.0,0.0,83,0.00,,CLR,0.00,VWS V14.01,2013-04-27 09:44:00,
2013-04-27 05:49:00,32.7,28.1,30.31,North,0,0.0,0.0,83,0.00,,CLR,0.00,VWS V14.01,2013-04-27 09:49:00,
2013-04-27 05:54:00,32.8,28.5,30.31,North,0,0.0,0.0,84,0.00,,CLR,0.00,VWS V14.01,2013-04-27 09:54:00,
2013-04-27 05:59:00,33.0,29.0,30.31,North,0,0.0,0.0,85,0.00,,CLR,0.00,VWS V14.01,2013-04-27 09:59:00,
2013-04-27 06:00:00,33.0,28.7,30.31,North,0,0.0,0.0,84,0.00,,-RA,0.00,VWS V14.01,2013-04-27 10:00:00,
2013-04-27 06:04:00,33.1,29.1,30.31,North,0,0.0,0.0,85,0.00,,CLR,0.00,VWS V14.01,2013-04-27 10:04:00,
2013-04-27 06:09:00,33.1,29.1,30.31,North,0,0.0,0.0,85,0.00,,CLR,0.00,VWS V14.01,2013-04-27 10:09:00,
2013-04-27 06:14:00,33.3,29.3,30.31,North,0,0.0,0.0,85,0.00,,CLR,0.00,VWS V14.01,2013-04-27 10:14:00,
2013-04-27 06:19:00,33.5,29.5,30.31,North,0,0.0,0.0,85,0.00,,CLR,0.00,VWS V14.01,2013-04-27 10:19:00,
2013-04-27 06:24:00,33.7,29.7,30.31,North,0,0.0,0.0,85,0.00,,CLR,0.00,VWS V14.01,2013-04-27 10:24:00,
2013-04-27 06:29:00,33.9,29.9,30.31,North,0,0.0,0.0,85,0.00,,CLR,0.00,VWS V14.01,2013-04-27 10:29:00,
2013-04-27 06:30:00,33.9,29.9,30.31,North,0,0.0,0.0,85,0.00,,-RA,0.00,VWS V14.01,2013-04-27 10:30:00,
2013-04-27 06:34:00,33.9,29.9,30.32,North,0,0.0,0.0,85,0.00,,CLR,0.00,VWS V14.01,2013-04-27 10:34:00,
2013-04-27 06:39:00,33.9,29.6,30.32,North,0,0.0,0.0,84,0.00,,CLR,0.00,VWS V14.01,2013-04-27 10:39:00,
2013-04-27 06:44:00,33.9,29.6,30.32,North,0,0.0,0.0,84,0.00,,CLR,0.00,VWS V14.01,2013-04-27 10:44:00,
2013-04-27 06:49:00,34.0,29.7,30.32,North,0,0.0,0.0,84,0.00,,CLR,0.00,VWS V14.01,2013-04-27 10:49:00,
2013-04-27 06:54:00,34.4,30.1,30.32,North,0,0.0,0.0,84,0.00,,CLR,0.00,VWS V14.01,2013-04-27 10:54:00,
2013-04-27 06:59:00,34.7,30.4,30.32,North,0,0.0,0.0,84,0.00,,CLR,0.00,VWS V14.01,2013-04-27 10:59:00,
2013-04-27 07:00:00,34.8,30.5,30.32,North,0,0.0,0.0,84,0.00,,-RA,0.00,VWS V14.01,2013-04-27 11:00:00,
2013-04-27 07:04:00,35.2,30.6,30.32,North,0,0.0,1.0,83,0.00,,CLR,0.00,VWS V14.01,2013-04-27 11:04:00,
2013-04-27 07:09:00,35.7,30.8,30.32,North,0,0.0,1.0,82,0.00,,CLR,0.00,VWS V14.01,2013-04-27 11:09:00,
2013-04-27 07:14:00,36.1,30.8,30.32,North,0,0.0,1.0,81,0.00,,CLR,0.00,VWS V14.01,2013-04-27 11:14:00,
2013-04-27 07:19:00,36.5,30.6,30.32,North,0,0.0,1.0,79,0.00,,CLR,0.00,VWS V14.01,2013-04-27 11:19:00,
2013-04-27 07:24:00,36.8,30.6,30.32,North,0,0.0,1.0,78,0.00,,CLR,0.00,VWS V14.01,2013-04-27 11:24:00,
2013-04-27 07:29:00,37.2,30.7,30.32,North,0,0.0,1.0,77,0.00,,CLR,0.00,VWS V14.01,2013-04-27 11:29:00,
2013-04-27 07:30:00,37.2,30.7,30.33,North,0,0.0,1.0,77,0.00,,-RA,0.00,VWS V14.01,2013-04-27 11:30:00,
2013-04-27 07:34:00,37.6,31.1,30.32,North,0,0.0,1.0,77,0.00,,CLR,0.00,VWS V14.01,2013-04-27 11:34:00,
2013-04-27 07:39:00,38.0,31.1,30.32,North,0,0.0,1.0,76,0.00,,CLR,0.00,VWS V14.01,2013-04-27 11:39:00,
2013-04-27 07:44:00,38.4,31.5,30.33,North,0,0.0,1.0,76,0.00,,CLR,0.00,VWS V14.01,2013-04-27 11:44:00,
2013-04-27 07:49:00,38.7,31.5,30.33,North,0,0.0,1.0,75,0.00,,CLR,0.00,VWS V14.01,2013-04-27 11:49:00,
2013-04-27 07:54:00,39.1,31.2,30.33,North,0,0.0,1.0,73,0.00,,CLR,0.00,VWS V14.01,2013-04-27 11:54:00,
2013-04-27 07:59:00,39.5,31.9,30.33,North,0,0.0,1.0,74,0.00,,CLR,0.00,VWS V14.01,2013-04-27 11:59:00,
2013-04-27 08:00:00,39.5,31.9,30.33,North,0,0.0,1.0,74,0.00,,-RA,0.00,VWS V14.01,2013-04-27 12:00:00,
2013-04-27 08:04:00,39.9,31.6,30.33,North,0,0.0,0.0,72,0.00,,CLR,0.00,VWS V14.01,2013-04-27 12:04:00,
2013-04-27 08:09:00,40.3,32.0,30.33,North,0,0.0,0.0,72,0.00,,CLR,0.00,VWS V14.01,2013-04-27 12:09:00,
2013-04-27 08:14:00,40.7,31.7,30.33,North,0,0.0,0.0,70,0.00,,CLR,0.00,VWS V14.01,2013-04-27 12:14:00,
2013-04-27 08:20:00,41.0,32.0,30.33,North,0,0.0,0.0,70,0.00,,CLR,0.00,VWS V14.01,2013-04-27 12:20:00,
2013-04-27 08:25:00,41.4,31.3,30.33,North,0,0.0,1.0,67,0.00,,CLR,0.00,VWS V14.01,2013-04-27 12:25:00,
2013-04-27 08:30:00,41.9,31.8,30.33,North,0,0.0,1.0,67,0.00,,CLR,0.00,VWS V14.01,2013-04-27 12:30:00,
2013-04-27 08:35:00,42.5,31.6,30.33,North,0,0.0,1.0,65,0.00,,CLR,0.00,VWS V14.01,2013-04-27 12:35:00,
2013-04-27 08:40:00,43.1,31.4,30.33,North,0,0.0,1.0,63,0.00,,CLR,0.00,VWS V14.01,2013-04-27 12:40:00,
2013-04-27 08:45:00,43.7,31.1,30.32,North,0,0.0,1.0,61,0.00,,CLR,0.00,VWS V14.01,2013-04-27 12:45:00,
2013-04-27 08:50:00,44.4,30.1,30.32,North,0,0.0,1.0,57,0.00,,CLR,0.00,VWS V14.01,2013-04-27 12:50:00,
2013-04-27 08:55:00,45.4,31.1,30.32,North,0,0.0,1.0,57,0.00,,CLR,0.00,VWS V14.01,2013-04-27 12:55:00,
2013-04-27 09:00:00,46.1,31.3,30.32,North,0,0.0,1.0,56,0.00,,CLR,0.00,VWS V14.01,2013-04-27 13:00:00,
2013-04-27 09:05:00,46.8,31.0,30.32,North,0,0.0,1.0,54,0.00,,CLR,0.00,VWS V14.01,2013-04-27 13:05:00,
2013-04-27 09:10:00,47.8,31.0,30.32,North,0,0.0,1.0,52,0.00,,CLR,0.00,VWS V14.01,2013-04-27 13:10:00,
2013-04-27 09:15:00,48.2,30.9,30.32,North,0,0.0,1.0,51,0.00,,CLR,0.00,VWS V14.01,2013-04-27 13:15:00,
2013-04-27 09:20:00,48.4,30.6,30.32,North,0,0.0,2.0,50,0.00,,CLR,0.00,VWS V14.01,2013-04-27 13:20:00,
2013-04-27 09:25:00,48.6,30.3,30.32,North,0,1.0,2.0,49,0.00,,CLR,0.00,VWS V14.01,2013-04-27 13:25:00,
2013-04-27 09:30:00,49.1,30.8,30.32,North,0,0.0,0.0,49,0.00,,CLR,0.00,VWS V14.01,2013-04-27 13:30:00,
2013-04-27 09:35:00,49.3,29.9,30.32,North,0,0.0,3.0,47,0.00,,CLR,0.00,VWS V14.01,2013-04-27 13:35:00,
2013-04-27 09:40:00,48.7,29.9,30.32,North,0,1.0,3.0,48,0.00,,CLR,0.00,VWS V14.01,2013-04-27 13:40:00,
2013-04-27 09:48:00,48.7,30.4,30.32,North,0,0.0,3.0,49,0.00,,CLR,0.00,VWS V14.01,2013-04-27 13:48:00,
2013-04-27 09:53:00,49.0,30.2,30.32,North,0,0.0,3.0,48,0.00,,CLR,0.00,VWS V14.01,2013-04-27 13:53:00,
2013-04-27 09:58:00,49.0,29.7,30.32,North,0,0.0,3.0,47,0.00,,CLR,0.00,VWS V14.01,2013-04-27 13:58:00,
2013-04-27 10:00:00,49.0,29.7,30.32,North,0,1.0,3.0,47,0.00,,-RA,0.00,VWS V14.01,2013-04-27 14:00:00,
2013-04-27 10:03:00,49.0,29.7,30.32,North,0,0.0,4.0,47,0.00,,CLR,0.00,VWS V14.01,2013-04-27 14:03:00,
2013-04-27 10:08:00,49.0,30.2,30.32,North,0,0.0,4.0,48,0.00,,CLR,0.00,VWS V14.01,2013-04-27 14:08:00,
2013-04-27 10:13:00,49.6,29.7,30.31,North,0,0.0,4.0,46,0.00,,CLR,0.00,VWS V14.01,2013-04-27 14:13:00,
2013-04-27 10:18:00,50.1,30.1,30.32,North,0,0.0,4.0,46,0.00,,CLR,0.00,VWS V14.01,2013-04-27 14:18:00,
2013-04-27 10:23:00,50.6,31.1,30.31,North,0,0.0,4.0,47,0.00,,CLR,0.00,VWS V14.01,2013-04-27 14:23:00,
2013-04-27 10:28:00,51.2,31.1,30.31,North,0,0.0,4.0,46,0.00,,CLR,0.00,VWS V14.01,2013-04-27 14:28:00,
2013-04-27 10:30:00,51.3,31.2,30.32,North,0,0.0,4.0,46,0.00,,-RA,0.00,VWS V14.01,2013-04-27 14:30:00,
2013-04-27 10:33:00,51.8,31.7,30.31,North,0,0.0,1.0,46,0.00,,CLR,0.00,VWS V14.01,2013-04-27 14:33:00,
2013-04-27 10:38:00,52.4,30.6,30.31,North,0,0.0,2.0,43,0.00,,CLR,0.00,VWS V14.01,2013-04-27 14:38:00,
2013-04-27 10:43:00,52.4,31.7,30.31,North,0,0.0,2.0,45,0.00,,CLR,0.00,VWS V14.01,2013-04-27 14:43:00,
2013-04-27 10:48:00,52.5,32.3,30.31,North,0,1.0,2.0,46,0.00,,CLR,0.00,VWS V14.01,2013-04-27 14:48:00,
2013-04-27 10:53:00,52.9,31.6,30.30,North,0,0.0,2.0,44,0.00,,CLR,0.00,VWS V14.01,2013-04-27 14:53:00,
2013-04-27 10:58:00,53.5,32.1,30.30,North,0,0.0,2.0,44,0.00,,CLR,0.00,VWS V14.01,2013-04-27 14:58:00,
2013-04-27 11:00:00,53.6,32.2,30.30,North,0,0.0,2.0,44,0.00,,-RA,0.00,VWS V14.01,2013-04-27 15:00:00,
2013-04-27 11:03:00,54.0,32.0,30.30,North,0,0.0,1.0,43,0.00,,CLR,0.00,VWS V14.01,2013-04-27 15:03:00,
2013-04-27 11:08:00,54.4,32.4,30.30,North,0,0.0,1.0,43,0.00,,CLR,0.00,VWS V14.01,2013-04-27 15:08:00,
2013-04-27 11:13:00,54.6,31.4,30.30,North,0,0.0,1.0,41,0.00,,CLR,0.00,VWS V14.01,2013-04-27 15:13:00,
2013-04-27 11:18:00,54.7,32.7,30.30,North,0,0.0,1.0,43,0.00,,CLR,0.00,VWS V14.01,2013-04-27 15:18:00,
2013-04-27 11:24:00,55.1,31.8,30.30,WNW,299,4.0,6.0,41,0.00,,CLR,0.00,VWS V14.01,2013-04-27 15:24:00,
2013-04-27 11:29:00,55.3,31.4,30.30,WNW,299,0.0,6.0,40,0.00,,CLR,0.00,VWS V14.01,2013-04-27 15:29:00,
2013-04-27 11:30:00,55.2,30.7,30.30,WNW,299,0.0,6.0,39,0.00,,-RA,0.00,VWS V14.01,2013-04-27 15:30:00,
2013-04-27 11:34:00,55.1,31.8,30.30,WNW,299,1.0,5.0,41,0.00,,CLR,0.00,VWS V14.01,2013-04-27 15:34:00,
2013-04-27 11:39:00,55.3,31.4,30.30,WNW,298,2.0,5.0,40,0.00,,CLR,0.00,VWS V14.01,2013-04-27 15:39:00,
2013-04-27 11:44:00,55.3,30.8,30.29,WNW,298,0.0,5.0,39,0.00,,CLR,0.00,VWS V14.01,2013-04-27 15:44:00,
2013-04-27 11:49:00,55.3,30.8,30.29,WNW,298,0.0,5.0,39,0.00,,CLR,0.00,VWS V14.01,2013-04-27 15:49:00,
2013-04-27 11:54:00,55.6,31.7,30.29,WNW,298,1.0,5.0,40,0.00,,CLR,0.00,VWS V14.01,2013-04-27 15:54:00,
2013-04-27 11:59:00,56.2,31.6,30.29,WNW,298,0.0,5.0,39,0.00,,CLR,0.00,VWS V14.01,2013-04-27 15:59:00,
2013-04-27 12:00:00,56.4,31.8,30.29,WNW,298,2.0,5.0,39,0.00,,-RA,0.00,VWS V14.01,2013-04-27 16:00:00,
2013-04-27 12:04:00,56.8,31.5,30.28,WNW,298,0.0,4.0,38,0.00,,FEW045,0.00,VWS V14.01,2013-04-27 16:04:00,
2013-04-27 12:09:00,57.0,31.0,30.28,WNW,297,0.0,5.0,37,0.00,,FEW045,0.00,VWS V14.01,2013-04-27 16:09:00,
2013-04-27 12:14:00,57.1,31.8,30.28,WNW,297,0.0,5.0,38,0.00,,FEW045,0.00,VWS V14.01,2013-04-27 16:14:00,
2013-04-27 12:19:00,57.4,30.7,30.28,WNW,297,0.0,5.0,36,0.00,,FEW045,0.00,VWS V14.01,2013-04-27 16:19:00,
2013-04-27 12:24:00,57.7,32.3,30.28,WNW,297,1.0,5.0,38,0.00,,FEW045,0.00,VWS V14.01,2013-04-27 16:24:00,
2013-04-27 12:29:00,58.3,32.2,30.27,WNW,297,0.0,5.0,37,0.00,,FEW045,0.00,VWS V14.01,2013-04-27 16:29:00,
2013-04-27 12:30:00,58.4,32.2,30.27,WNW,297,0.0,5.0,37,0.00,,-RA,0.00,VWS V14.01,2013-04-27 16:30:00,
2013-04-27 12:34:00,58.5,32.3,30.27,WNW,297,1.0,4.0,37,0.00,,FEW045,0.00,VWS V14.01,2013-04-27 16:34:00,
2013-04-27 12:39:00,58.5,31.7,30.27,WNW,297,0.0,4.0,36,0.00,,FEW045,0.00,VWS V14.01,2013-04-27 16:39:00,
2013-04-27 12:44:00,58.9,31.3,30.27,WNW,297,5.0,5.0,35,0.00,,FEW045,0.00,VWS V14.01,2013-04-27 16:44:00,
2013-04-27 12:49:00,58.7,28.2,30.27,WNW,301,4.0,5.0,31,0.00,,FEW045,0.00,VWS V14.01,2013-04-27 16:49:00,
2013-04-27 12:54:00,58.8,29.8,30.26,North,349,2.0,5.0,33,0.00,,FEW045,0.00,VWS V14.01,2013-04-27 16:54:00,
2013-04-27 12:59:00,58.8,25.8,30.26,North,0,0.0,5.0,28,0.00,,FEW045,0.00,VWS V14.01,2013-04-27 16:59:00,
2013-04-27 13:00:00,58.9,26.7,30.26,North,0,1.0,5.0,29,0.00,,-RA,0.00,VWS V14.01,2013-04-27 17:00:00,
2013-04-27 13:04:00,59.0,26.8,30.25,North,0,0.0,2.0,29,0.00,,FEW065,0.00,VWS V14.01,2013-04-27 17:04:00,
2013-04-27 13:09:00,59.2,26.1,30.25,North,0,1.0,2.0,28,0.00,,FEW065,0.00,VWS V14.01,2013-04-27 17:09:00,
2013-04-27 13:14:00,59.5,25.5,30.25,North,0,0.0,4.0,27,0.00,,FEW065,0.00,VWS V14.01,2013-04-27 17:14:00,
2013-04-27 13:19:00,60.0,24.1,30.25,NW,307,6.0,7.0,25,0.00,,FEW065,0.00,VWS V14.01,2013-04-27 17:19:00,
2013-04-27 13:24:00,60.0,25.0,30.25,NW,308,0.0,7.0,26,0.00,,FEW065,0.00,VWS V14.01,2013-04-27 17:24:00,
2013-04-27 13:29:00,60.0,24.1,30.25,WNW,302,0.0,7.0,25,0.00,,FEW065,0.00,VWS V14.01,2013-04-27 17:29:00,
2013-04-27 13:30:00,59.9,25.0,30.25,WNW,302,0.0,7.0,26,0.00,,-RA,0.00,VWS V14.01,2013-04-27 17:30:00,
2013-04-27 13:34:00,60.0,24.1,30.25,WNW,295,0.0,6.0,25,0.00,,FEW065,0.00,VWS V14.01,2013-04-27 17:34:00,
2013-04-27 13:39:00,60.4,24.4,30.24,WNW,295,0.0,6.0,25,0.00,,FEW065,0.00,VWS V14.01,2013-04-27 17:39:00,
2013-04-27 13:44:00,60.7,26.5,30.24,NE,45,2.0,6.0,27,0.00,,FEW065,0.00,VWS V14.01,2013-04-27 17:44:00,
2013-04-27 13:49:00,60.6,25.5,30.24,North,358,0.0,8.0,26,0.00,,FEW065,0.00,VWS V14.01,2013-04-27 17:49:00,
2013-04-27 13:54:00,60.3,26.2,30.24,North,0,3.0,8.0,27,0.00,,FEW065,0.00,VWS V14.01,2013-04-27 17:54:00,
2013-04-27 13:59:00,60.0,26.0,30.24,North,0,0.0,8.0,27,0.00,,FEW065,0.00,VWS V14.01,2013-04-27 17:59:00,
2013-04-27 14:00:00,60.0,26.0,30.24,North,0,0.0,8.0,27,0.00,,-RA,0.00,VWS V14.01,2013-04-27 18:00:00,
2013-04-27 14:04:00,59.9,25.9,30.24,NNW,337,3.0,6.0,27,0.00,,FEW055,0.00,VWS V14.01,2013-04-27 18:04:00,
2013-04-27 14:09:00,59.9,26.7,30.24,NNW,337,0.0,6.0,28,0.00,,FEW055,0.00,VWS V14.01,2013-04-27 18:09:00,
2013-04-27 14:14:00,60.3,26.2,30.23,NNW,337,0.0,6.0,27,0.00,,FEW055,0.00,VWS V14.01,2013-04-27 18:14:00,
2013-04-27 14:19:00,60.3,26.2,30.23,NNW,339,0.0,6.0,27,0.00,,FEW055,0.00,VWS V14.01,2013-04-27 18:19:00,
2013-04-27 14:24:00,60.6,26.5,30.23,NNW,340,1.0,6.0,27,0.00,,FEW055,0.00,VWS V14.01,2013-04-27 18:24:00,
2013-04-27 14:29:00,60.9,26.7,30.23,NNW,341,2.0,6.0,27,0.00,,FEW055,0.00,VWS V14.01,2013-04-27 18:29:00,
2013-04-27 14:30:00,60.9,27.6,30.23,NNW,341,0.0,6.0,28,0.00,,-RA,0.00,VWS V14.01,2013-04-27 18:30:00,
2013-04-27 14:34:00,61.1,26.9,30.22,NNW,336,2.0,5.0,27,0.00,,FEW055,0.00,VWS V14.01,2013-04-27 18:34:00,
2013-04-27 14:39:00,61.0,26.8,30.22,NW,318,3.0,7.0,27,0.00,,FEW055,0.00,VWS V14.01,2013-04-27 18:39:00,
2013-04-27 14:44:00,60.9,26.7,30.22,NW,323,0.0,9.0,27,0.00,,FEW055,0.00,VWS V14.01,2013-04-27 18:44:00,
2013-04-27 14:49:00,61.1,26.9,30.22,NNW,336,1.0,9.0,27,0.00,,FEW055,0.00,VWS V14.01,2013-04-27 18:49:00,
2013-04-27 14:54:00,61.2,27.0,30.22,NNW,336,0.0,9.0,27,0.00,,FEW055,0.00,VWS V14.01,2013-04-27 18:54:00,
2013-04-27 14:59:00,61.5,28.1,30.21,North,353,2.0,9.0,28,0.00,,FEW055,0.00,VWS V14.01,2013-04-27 18:59:00,
2013-04-27 15:00:00,61.5,28.1,30.21,North,353,3.0,9.0,28,0.00,,-RA,0.00,VWS V14.01,2013-04-27 19:00:00,
2013-04-27 15:04:00,61.9,27.6,30.21,North,353,0.0,3.0,27,0.00,,FEW050,0.00,VWS V14.01,2013-04-27 19:04:00,
2013-04-27 15:09:00,61.8,27.5,30.20,North,358,0.0,6.0,27,0.00,,FEW050,0.00,VWS V14.01,2013-04-27 19:09:00,
2013-04-27 15:14:00,61.8,27.5,30.21,North,358,4.0,8.0,27,0.00,,FEW050,0.00,VWS V14.01,2013-04-27 19:14:00,
2013-04-27 15:19:00,61.6,26.4,30.20,NNW,331,1.0,8.0,26,0.00,,FEW050,0.00,VWS V14.01,2013-04-27 19:19:00,
2013-04-27 15:24:00,61.3,27.1,30.20,NW,304,3.0,8.0,27,0.00,,FEW050,0.00,VWS V14.01,2013-04-27 19:24:00,
2013-04-27 15:30:00,61.4,27.1,30.20,NNW,331,4.0,8.0,27,0.00,,FEW050,0.00,VWS V14.01,2013-04-27 19:30:00,
2013-04-27 15:35:00,61.5,27.2,30.20,North,0,2.0,8.0,27,0.00,,FEW050,0.00,VWS V14.01,2013-04-27 19:35:00,
2013-04-27 15:40:00,61.8,27.5,30.19,North,0,0.0,8.0,27,0.00,,FEW050,0.00,VWS V14.01,2013-04-27 19:40:00,
2013-04-27 15:45:00,62.0,27.7,30.19,West,273,1.0,8.0,27,0.00,,FEW050,0.00,VWS V14.01,2013-04-27 19:45:00,
2013-04-27 15:50:00,62.4,28.0,30.19,West,273,0.0,8.0,27,0.00,,FEW050,0.00,VWS V14.01,2013-04-27 19:50:00,
2013-04-27 15:55:00,62.6,28.2,30.19,NNW,335,0.0,8.0,27,0.00,,FEW050,0.00,VWS V14.01,2013-04-27 19:55:00,
2013-04-27 16:00:00,62.6,27.3,30.18,North,349,5.0,8.0,26,0.00,,FEW050,0.00,VWS V14.01,2013-04-27 20:00:00,
2013-04-27 16:05:00,62.1,26.8,30.18,North,349,2.0,5.0,26,0.00,,SCT250,0.00,VWS V14.01,2013-04-27 20:05:00,
2013-04-27 16:10:00,61.9,26.7,30.18,North,349,0.0,5.0,26,0.00,,SCT250,0.00,VWS V14.01,2013-04-27 20:10:00,
2013-04-27 16:15:00,62.1,27.8,30.18,North,349,1.0,5.0,27,0.00,,SCT250,0.00,VWS V14.01,2013-04-27 20:15:00,
2013-04-27 16:20:00,62.4,26.1,30.18,North,349,1.0,5.0,25,0.00,,SCT250,0.00,VWS V14.01,2013-04-27 20:20:00,
2013-04-27 16:25:00,62.5,26.2,30.18,North,0,4.0,5.0,25,0.00,,SCT250,0.00,VWS V14.01,2013-04-27 20:25:00,
2013-04-27 16:30:00,62.5,27.2,30.18,North,351,3.0,3.0,26,0.00,,SCT250,0.00,VWS V14.01,2013-04-27 20:30:00,
2013-04-27 16:35:00,62.3,26.1,30.18,NW,315,0.0,7.0,25,0.00,,SCT250,0.00,VWS V14.01,2013-04-27 20:35:00,
2013-04-27 16:40:00,62.0,25.8,30.18,NW,315,1.0,7.0,25,0.00,,SCT250,0.00,VWS V14.01,2013-04-27 20:40:00,
2013-04-27 16:45:00,62.0,27.7,30.18,NW,315,0.0,7.0,27,0.00,,SCT250,0.00,VWS V14.01,2013-04-27 20:45:00,
2013-04-27 16:50:00,62.1,27.8,30.17,NW,308,4.0,7.0,27,0.00,,SCT250,0.00,VWS V14.01,2013-04-27 20:50:00,
2013-04-27 16:55:00,62.4,28.0,30.17,NW,306,3.0,7.0,27,0.00,,SCT250,0.00,VWS V14.01,2013-04-27 20:55:00,
2013-04-27 17:00:00,62.8,28.4,30.17,NW,304,4.0,4.0,27,0.00,,SCT250,0.00,VWS V14.01,2013-04-27 21:00:00,
2013-04-27 17:05:00,63.0,26.6,30.17,WNW,303,1.0,6.0,25,0.00,,SCT250,0.00,VWS V14.01,2013-04-27 21:05:00,
2013-04-27 17:10:00,63.1,26.7,30.17,WNW,303,0.0,6.0,25,0.00,,SCT250,0.00,VWS V14.01,2013-04-27 21:10:00,
2013-04-27 17:15:00,63.1,26.7,30.17,WNW,303,0.0,6.0,25,0.00,,SCT250,0.00,VWS V14.01,2013-04-27 21:15:00,
2013-04-27 17:20:00,63.5,27.1,30.17,WNW,303,1.0,6.0,25,0.00,,SCT250,0.00,VWS V14.01,2013-04-27 21:20:00,
2013-04-27 17:25:00,63.3,26.9,30.17,WNW,303,0.0,6.0,25,0.00,,SCT250,0.00,VWS V14.01,2013-04-27 21:25:00,
2013-04-27 17:30:00,63.5,27.1,30.17,WNW,303,1.0,3.0,25,0.00,,SCT250,0.00,VWS V14.01,2013-04-27 21:30:00,
2013-04-27 17:35:00,64.0,26.5,30.17,WNW,295,0.0,5.0,24,0.00,,SCT250,0.00,VWS V14.01,2013-04-27 21:35:00,
2013-04-27 17:40:00,64.4,26.9,30.17,WNW,292,2.0,5.0,24,0.00,,SCT250,0.00,VWS V14.01,2013-04-27 21:40:00,
2013-04-27 17:45:00,64.7,28.1,30.17,WNW,285,0.0,5.0,25,0.00,,SCT250,0.00,VWS V14.01,2013-04-27 21:45:00,
2013-04-27 17:50:00,65.1,27.4,30.17,WNW,285,0.0,5.0,24,0.00,,SCT250,0.00,VWS V14.01,2013-04-27 21:50:00,
2013-04-27 17:55:00,65.4,27.7,30.17,WNW,285,0.0,5.0,24,0.00,,SCT250,0.00,VWS V14.01,2013-04-27 21:55:00,
2013-04-27 18:00:00,65.4,27.7,30.16,WNW,285,0.0,1.0,24,0.00,,SCT250,0.00,VWS V14.01,2013-04-27 22:00:00,
2013-04-27 18:05:00,65.4,27.7,30.17,WNW,285,0.0,1.0,24,0.00,,SCT250,0.00,VWS V14.01,2013-04-27 22:05:00,
2013-04-27 18:10:00,65.6,27.9,30.16,WNW,285,1.0,1.0,24,0.00,,SCT250,0.00,VWS V14.01,2013-04-27 22:10:00,
2013-04-27 18:15:00,65.9,28.1,30.16,WNW,285,0.0,2.0,24,0.00,,SCT250,0.00,VWS V14.01,2013-04-27 22:15:00,
2013-04-27 18:21:00,66.1,28.3,30.16,WNW,285,0.0,2.0,24,0.00,,SCT250,0.00,VWS V14.01,2013-04-27 22:21:00,
2013-04-27 18:26:00,66.2,27.3,30.16,WNW,285,0.0,2.0,23,0.00,,SCT250,0.00,VWS V14.01,2013-04-27 22:26:00,
2013-04-27 18:30:00,65.9,27.1,30.16,WNW,285,0.0,2.0,23,0.00,,-RA,0.00,VWS V14.01,2013-04-27 22:30:00,
2013-04-27 18:31:00,65.8,27.0,30.16,WNW,285,0.0,0.0,23,0.00,,SCT250,0.00,VWS V14.01,2013-04-27 22:31:00,
2013-04-27 18:36:00,65.0,26.3,30.16,WNW,285,0.0,2.0,23,0.00,,SCT250,0.00,VWS V14.01,2013-04-27 22:36:00,
2013-04-27 18:41:00,64.5,26.9,30.16,WNW,285,1.0,2.0,24,0.00,,SCT250,0.00,VWS V14.01,2013-04-27 22:41:00,
2013-04-27 18:46:00,63.9,27.4,30.16,WNW,285,0.0,4.0,25,0.00,,SCT250,0.00,VWS V14.01,2013-04-27 22:46:00,
2013-04-27 18:51:00,63.1,26.7,30.16,WNW,285,0.0,4.0,25,0.00,,SCT250,0.00,VWS V14.01,2013-04-27 22:51:00,
2013-04-27 18:56:00,62.5,27.2,30.17,WNW,285,0.0,4.0,26,0.00,,SCT250,0.00,VWS V14.01,2013-04-27 22:56:00,
2013-04-27 19:00:00,62.1,27.8,30.17,WNW,285,0.0,4.0,27,0.00,,-RA,0.00,VWS V14.01,2013-04-27 23:00:00,
2013-04-27 19:01:00,62.0,27.7,30.17,WNW,285,0.0,1.0,27,0.00,,SCT250,0.00,VWS V14.01,2013-04-27 23:01:00,
2013-04-27 19:06:00,61.7,27.4,30.16,WNW,285,0.0,1.0,27,0.00,,SCT250,0.00,VWS V14.01,2013-04-27 23:06:00,
2013-04-27 19:11:00,61.4,27.1,30.17,WNW,285,0.0,2.0,27,0.00,,SCT250,0.00,VWS V14.01,2013-04-27 23:11:00,
2013-04-27 19:16:00,61.2,27.9,30.16,WNW,285,0.0,2.0,28,0.00,,SCT250,0.00,VWS V14.01,2013-04-27 23:16:00,
2013-04-27 19:21:00,60.9,27.6,30.17,WNW,285,0.0,2.0,28,0.00,,SCT250,0.00,VWS V14.01,2013-04-27 23:21:00,
2013-04-27 19:26:00,60.4,28.0,30.17,WNW,285,0.0,2.0,29,0.00,,SCT250,0.00,VWS V14.01,2013-04-27 23:26:00,
2013-04-27 19:30:00,60.2,27.9,30.17,WNW,285,0.0,2.0,29,0.00,,-RA,0.00,VWS V14.01,2013-04-27 23:30:00,
2013-04-27 19:31:00,60.0,27.7,30.17,WNW,285,2.0,3.0,29,0.00,,SCT250,0.00,VWS V14.01,2013-04-27 23:31:00,
2013-04-27 19:36:00,59.3,30.2,30.17,WNW,284,0.0,6.0,33,0.00,,SCT250,0.00,VWS V14.01,2013-04-27 23:36:00,
2013-04-27 19:41:00,58.6,31.0,30.17,WNW,284,0.0,6.0,35,0.00,,SCT250,0.00,VWS V14.01,2013-04-27 23:41:00,
2013-04-27 19:46:00,57.9,32.5,30.17,WNW,284,0.0,6.0,38,0.00,,SCT250,0.00,VWS V14.01,2013-04-27 23:46:00,
2013-04-27 19:51:00,57.3,32.6,30.17,WNW,284,0.0,6.0,39,0.00,,SCT250,0.00,VWS V14.01,2013-04-27 23:51:00,
2013-04-27 19:56:00,56.9,32.8,30.17,WNW,284,0.0,6.0,40,0.00,,SCT250,0.00,VWS V14.01,2013-04-27 23:56:00,
2013-04-27 20:00:00,56.5,32.5,30.17,WNW,284,0.0,6.0,40,0.00,,-RA,0.00,VWS V14.01,2013-04-28 00:00:00,
2013-04-27 20:01:00,56.4,32.4,30.18,WNW,284,0.0,3.0,40,0.00,,FEW085,0.00,VWS V14.01,2013-04-28 00:01:00,
2013-04-27 20:06:00,55.9,33.8,30.18,WNW,284,0.0,3.0,43,0.00,,FEW085,0.00,VWS V14.01,2013-04-28 00:06:00,
2013-04-27 20:11:00,55.4,33.3,30.18,WNW,284,3.0,3.0,43,0.00,,FEW085,0.00,VWS V14.01,2013-04-28 00:11:00,
2013-04-27 20:16:00,55.0,34.1,30.18,WNW,284,0.0,3.0,45,0.00,,FEW085,0.00,VWS V14.01,2013-04-28 00:16:00,
2013-04-27 20:21:00,54.6,34.2,30.18,WNW,284,0.0,4.0,46,0.00,,FEW085,0.00,VWS V14.01,2013-04-28 00:21:00,
2013-04-27 20:26:00,54.3,34.0,30.19,WNW,284,0.0,4.0,46,0.00,,FEW085,0.00,VWS V14.01,2013-04-28 00:26:00,
2013-04-27 20:30:00,54.1,34.3,30.19,WNW,284,0.0,4.0,47,0.00,,-RA,0.00,VWS V14.01,2013-04-28 00:30:00,
2013-04-27 20:31:00,54.0,34.2,30.19,WNW,284,0.0,0.0,47,0.00,,FEW085,0.00,VWS V14.01,2013-04-28 00:31:00,
2013-04-27 20:36:00,53.7,34.5,30.19,WNW,284,0.0,0.0,48,0.00,,FEW085,0.00,VWS V14.01,2013-04-28 00:36:00,
2013-04-27 20:41:00,53.4,34.2,30.19,WNW,284,0.0,0.0,48,0.00,,FEW085,0.00,VWS V14.01,2013-04-28 00:41:00,
2013-04-27 20:46:00,52.9,33.8,30.19,WNW,284,0.0,2.0,48,0.00,,FEW085,0.00,VWS V14.01,2013-04-28 00:46:00,
2013-04-27 20:51:00,52.5,33.9,30.19,WNW,284,0.0,2.0,49,0.00,,FEW085,0.00,VWS V14.01,2013-04-28 00:51:00,
2013-04-27 20:56:00,52.1,33.5,30.19,WNW,284,0.0,4.0,49,0.00,,FEW085,0.00,VWS V14.01,2013-04-28 00:56:00,
2013-04-27 21:00:00,51.9,33.4,30.19,WNW,284,1.0,4.0,49,0.00,,-RA,0.00,VWS V14.01,2013-04-28 01:00:00,
2013-04-27 21:01:00,51.8,33.3,30.19,WNW,284,0.0,3.0,49,0.00,,FEW090,0.00,VWS V14.01,2013-04-28 01:01:00,
2013-04-27 21:06:00,51.5,33.5,30.19,WNW,284,0.0,3.0,50,0.00,,FEW090,0.00,VWS V14.01,2013-04-28 01:06:00,
2013-04-27 21:11:00,51.2,33.2,30.19,WNW,284,0.0,3.0,50,0.00,,FEW090,0.00,VWS V14.01,2013-04-28 01:11:00,
2013-04-27 21:16:00,50.9,33.4,30.19,WNW,284,0.0,3.0,51,0.00,,FEW090,0.00,VWS V14.01,2013-04-28 01:16:00,
2013-04-27 21:21:00,50.6,33.2,30.20,WNW,284,0.0,3.0,51,0.00,,FEW090,0.00,VWS V14.01,2013-04-28 01:21:00,
2013-04-27 21:27:00,50.4,33.0,30.20,WNW,284,0.0,3.0,51,0.00,,FEW090,0.00,VWS V14.01,2013-04-28 01:27:00,
2013-04-27 21:30:00,50.2,33.3,30.20,WNW,284,0.0,3.0,52,0.00,,-RA,0.00,VWS V14.01,2013-04-28 01:30:00,
2013-04-27 21:32:00,50.1,33.2,30.20,WNW,284,1.0,4.0,52,0.00,,FEW090,0.00,VWS V14.01,2013-04-28 01:32:00,
2013-04-27 21:37:00,49.9,33.5,30.20,WNW,284,0.0,4.0,53,0.00,,FEW090,0.00,VWS V14.01,2013-04-28 01:37:00,
2013-04-27 21:42:00,49.6,33.2,30.20,WNW,284,0.0,4.0,53,0.00,,FEW090,0.00,VWS V14.01,2013-04-28 01:42:00,
2013-04-27 21:47:00,49.4,33.0,30.20,WNW,284,0.0,4.0,53,0.00,,FEW090,0.00,VWS V14.01,2013-04-28 01:47:00,
2013-04-27 21:52:00,49.2,32.8,30.20,WNW,284,1.0,4.0,53,0.00,,FEW090,0.00,VWS V14.01,2013-04-28 01:52:00,
2013-04-27 21:57:00,49.1,32.7,30.20,WNW,284,0.0,4.0,53,0.00,,FEW090,0.00,VWS V14.01,2013-04-28 01:57:00,
2013-04-27 22:00:00,49.0,32.6,30.20,WNW,284,0.0,4.0,53,0.00,,-RA,0.00,VWS V14.01,2013-04-28 02:00:00,
2013-04-27 22:02:00,48.9,33.0,30.20,WNW,284,0.0,0.0,54,0.00,,FEW090,0.00,VWS V14.01,2013-04-28 02:02:00,
2013-04-27 22:07:00,48.7,32.8,30.20,WNW,284,0.0,0.0,54,0.00,,FEW090,0.00,VWS V14.01,2013-04-28 02:07:00,
2013-04-27 22:12:00,48.4,32.5,30.20,WNW,284,0.0,1.0,54,0.00,,FEW090,0.00,VWS V14.01,2013-04-28 02:12:00,
2013-04-27 22:17:00,48.2,32.8,30.21,WNW,284,0.0,1.0,55,0.00,,FEW090,0.00,VWS V14.01,2013-04-28 02:17:00,
2013-04-27 22:22:00,47.9,32.5,30.20,WNW,284,0.0,1.0,55,0.00,,FEW090,0.00,VWS V14.01,2013-04-28 02:22:00,
2013-04-27 22:27:00,47.7,32.8,30.21,WNW,284,0.0,1.0,56,0.00,,FEW090,0.00,VWS V14.01,2013-04-28 02:27:00,
2013-04-27 22:30:00,47.6,32.7,30.20,WNW,284,0.0,1.0,56,0.00,,-RA,0.00,VWS V14.01,2013-04-28 02:30:00,
2013-04-27 22:32:00,47.5,32.6,30.20,WNW,284,0.0,0.0,56,0.00,,FEW090,0.00,VWS V14.01,2013-04-28 02:32:00,
2013-04-27 22:37:00,47.3,32.4,30.20,WNW,284,0.0,0.0,56,0.00,,FEW090,0.00,VWS V14.01,2013-04-28 02:37:00,
2013-04-27 22:42:00,47.1,32.7,30.20,WNW,284,0.0,1.0,57,0.00,,FEW090,0.00,VWS V14.01,2013-04-28 02:42:00,
2013-04-27 22:47:00,47.0,33.0,30.20,WNW,284,0.0,1.0,58,0.00,,FEW090,0.00,VWS V14.01,2013-04-28 02:47:00,
2013-04-27 22:52:00,46.8,32.8,30.20,WNW,284,0.0,1.0,58,0.00,,FEW090,0.00,VWS V14.01,2013-04-28 02:52:00,
2013-04-27 22:57:00,46.7,32.7,30.20,WNW,284,0.0,1.0,58,0.00,,FEW090,0.00,VWS V14.01,2013-04-28 02:57:00,
2013-04-27 23:00:00,46.7,32.7,30.21,WNW,284,0.0,1.0,58,0.00,,-RA,0.00,VWS V14.01,2013-04-28 03:00:00,
2013-04-27 23:02:00,46.6,32.6,30.21,WNW,284,0.0,0.0,58,0.00,,FEW090,0.00,VWS V14.01,2013-04-28 03:02:00,
2013-04-27 23:07:00,46.5,33.0,30.21,WNW,284,0.0,0.0,59,0.00,,FEW090,0.00,VWS V14.01,2013-04-28 03:07:00,
2013-04-27 23:12:00,46.3,32.8,30.20,WNW,284,0.0,0.0,59,0.00,,FEW090,0.00,VWS V14.01,2013-04-28 03:12:00,
2013-04-27 23:17:00,46.2,32.7,30.21,WNW,284,0.0,0.0,59,0.00,,FEW090,0.00,VWS V14.01,2013-04-28 03:17:00,
2013-04-27 23:22:00,46.0,32.9,30.21,WNW,284,0.0,0.0,60,0.00,,FEW090,0.00,VWS V14.01,2013-04-28 03:22:00,
2013-04-27 23:27:00,45.8,32.7,30.21,WNW,284,0.0,0.0,60,0.00,,FEW090,0.00,VWS V14.01,2013-04-28 03:27:00,
2013-04-27 23:30:00,45.8,32.7,30.21,WNW,284,0.0,0.0,60,0.00,,-RA,0.00,VWS V14.01,2013-04-28 03:30:00,
2013-04-27 23:32:00,45.7,32.6,30.21,WNW,284,0.0,0.0,60,0.00,,FEW090,0.00,VWS V14.01,2013-04-28 03:32:00,
2013-04-27 23:37:00,45.6,32.5,30.21,WNW,284,0.0,0.0,60,0.00,,FEW090,0.00,VWS V14.01,2013-04-28 03:37:00,
2013-04-27 23:42:00,45.6,32.5,30.21,WNW,284,0.0,0.0,60,0.00,,FEW090,0.00,VWS V14.01,2013-04-28 03:42:00,
2013-04-27 23:47:00,45.5,32.4,30.21,WNW,284,0.0,0.0,60,0.00,,FEW090,0.00,VWS V14.01,2013-04-28 03:47:00,
2013-04-27 23:52:00,45.4,32.3,30.21,WNW,284,0.0,0.0,60,0.00,,FEW090,0.00,VWS V14.01,2013-04-28 03:52:00,
2013-04-27 23:57:00,45.3,32.2,30.21,WNW,284,0.0,0.0,60,0.00,,FEW090,0.00,VWS V14.01,2013-04-28 03:57:00,